Mc Shan, Alabama
Current Conditions -  °F | °C
As of 1:58 AM on Friday 28 Nov 2014 (Local Time) from KCBM Reporting Station
Clear Clear  
Wind Chill: 25°   Ceiling: Unl
Heat Index: 25°   Visibility: 10mi
Dew Point: 23°   Wind: 2mph
Humidity: 91%   Direction: 200°SSW
Pressure: 30.48"   Gusts: NA
Location:  33.3788°N, 88.1443°W
Report Text: KCBM 280758Z AUTO 20002KT 10SM CLR M04/M05 A3048 RMK AO2 SLP326 T10371049 $
Loading
Personal Weather Stations






























Interactive Weather Map New forecast layout! Learn more

10-Day Weather Forecast

Advertisements
Track Severe Weather on mobile